sensor_id;sensor_type;location;lat;lon;timestamp;P1;durP1;ratioP1;P2;durP2;ratioP2
51374;SDS011;37465;52.738;4.752;2024-01-10T00:02:09;7.75;;;5.53;;
51374;SDS011;37465;52.738;4.752;2024-01-10T00:04:37;7.25;;;5.13;;
51374;SDS011;37465;52.738;4.752;2024-01-10T00:07:05;9.20;;;5.82;;
51374;SDS011;37465;52.738;4.752;2024-01-10T00:09:32;7.95;;;4.57;;
51374;SDS011;37465;52.738;4.752;2024-01-10T00:12:00;7.50;;;5.25;;
51374;SDS011;37465;52.738;4.752;2024-01-10T00:14:27;8.95;;;5.63;;
51374;SDS011;37465;52.738;4.752;2024-01-10T00:16:56;7.55;;;5.07;;
51374;SDS011;37465;52.738;4.752;2024-01-10T00:19:24;7.35;;;5.15;;
51374;SDS011;37465;52.738;4.752;2024-01-10T00:21:51;6.97;;;4.13;;
51374;SDS011;37465;52.738;4.752;2024-01-10T00:24:19;6.95;;;4.75;;
51374;SDS011;37465;52.738;4.752;2024-01-10T00:26:46;6.75;;;4.95;;
51374;SDS011;37465;52.738;4.752;2024-01-10T00:29:14;6.68;;;4.88;;
51374;SDS011;37465;52.738;4.752;2024-01-10T00:31:41;7.57;;;4.85;;
51374;SDS011;37465;52.738;4.752;2024-01-10T00:34:10;8.35;;;4.63;;
51374;SDS011;37465;52.738;4.752;2024-01-10T00:36:38;7.28;;;5.25;;
51374;SDS011;37465;52.738;4.752;2024-01-10T00:39:05;10.35;;;4.90;;
51374;SDS011;37465;52.738;4.752;2024-01-10T00:41:33;7.43;;;5.22;;
51374;SDS011;37465;52.738;4.752;2024-01-10T00:44:00;7.22;;;5.28;;
51374;SDS011;37465;52.738;4.752;2024-01-10T00:46:28;8.02;;;4.97;;
51374;SDS011;37465;52.738;4.752;2024-01-10T00:48:55;7.10;;;4.43;;
51374;SDS011;37465;52.738;4.752;2024-01-10T00:51:24;8.98;;;4.78;;
51374;SDS011;37465;52.738;4.752;2024-01-10T00:53:52;7.03;;;4.75;;
51374;SDS011;37465;52.738;4.752;2024-01-10T00:56:19;7.65;;;5.00;;
51374;SDS011;37465;52.738;4.752;2024-01-10T00:58:47;7.47;;;5.18;;
51374;SDS011;37465;52.738;4.752;2024-01-10T01:01:15;8.25;;;5.00;;
51374;SDS011;37465;52.738;4.752;2024-01-10T01:03:42;7.68;;;4.47;;
51374;SDS011;37465;52.738;4.752;2024-01-10T01:06:10;6.57;;;4.63;;
51374;SDS011;37465;52.738;4.752;2024-01-10T01:08:40;7.38;;;5.15;;
51374;SDS011;37465;52.738;4.752;2024-01-10T01:11:07;9.25;;;5.32;;
51374;SDS011;37465;52.738;4.752;2024-01-10T01:13:35;6.97;;;5.03;;
51374;SDS011;37465;52.738;4.752;2024-01-10T01:16:02;7.93;;;4.85;;
51374;SDS011;37465;52.738;4.752;2024-01-10T01:18:30;8.32;;;4.97;;
51374;SDS011;37465;52.738;4.752;2024-01-10T01:20:58;8.48;;;5.20;;
51374;SDS011;37465;52.738;4.752;2024-01-10T01:23:25;8.60;;;5.55;;
51374;SDS011;37465;52.738;4.752;2024-01-10T01:26:08;7.90;;;4.90;;
51374;SDS011;37465;52.738;4.752;2024-01-10T01:28:36;6.78;;;4.90;;
51374;SDS011;37465;52.738;4.752;2024-01-10T01:31:03;7.97;;;4.85;;
51374;SDS011;37465;52.738;4.752;2024-01-10T01:33:31;7.88;;;5.03;;
51374;SDS011;37465;52.738;4.752;2024-01-10T01:35:58;7.97;;;5.07;;
51374;SDS011;37465;52.738;4.752;2024-01-10T01:38:26;8.18;;;4.82;;
51374;SDS011;37465;52.738;4.752;2024-01-10T01:40:54;7.38;;;4.53;;
51374;SDS011;37465;52.738;4.752;2024-01-10T01:43:24;7.22;;;4.72;;
51374;SDS011;37465;52.738;4.752;2024-01-10T01:45:53;7.53;;;5.45;;
51374;SDS011;37465;52.738;4.752;2024-01-10T01:48:22;6.18;;;4.10;;
51374;SDS011;37465;52.738;4.752;2024-01-10T01:50:50;8.47;;;4.93;;
51374;SDS011;37465;52.738;4.752;2024-01-10T01:53:19;7.65;;;4.88;;
51374;SDS011;37465;52.738;4.752;2024-01-10T01:55:46;6.80;;;4.28;;
51374;SDS011;37465;52.738;4.752;2024-01-10T01:58:14;9.35;;;4.80;;
51374;SDS011;37465;52.738;4.752;2024-01-10T02:00:43;8.07;;;4.85;;
51374;SDS011;37465;52.738;4.752;2024-01-10T02:03:10;5.57;;;3.88;;
51374;SDS011;37465;52.738;4.752;2024-01-10T02:05:38;6.20;;;4.20;;
51374;SDS011;37465;52.738;4.752;2024-01-10T02:08:06;6.40;;;3.80;;
51374;SDS011;37465;52.738;4.752;2024-01-10T02:10:33;6.75;;;4.68;;
51374;SDS011;37465;52.738;4.752;2024-01-10T02:13:01;6.47;;;3.70;;
51374;SDS011;37465;52.738;4.752;2024-01-10T02:15:29;7.10;;;4.20;;
51374;SDS011;37465;52.738;4.752;2024-01-10T02:17:58;7.05;;;4.22;;
51374;SDS011;37465;52.738;4.752;2024-01-10T02:20:25;6.28;;;4.03;;
51374;SDS011;37465;52.738;4.752;2024-01-10T02:22:53;6.80;;;4.30;;
51374;SDS011;37465;52.738;4.752;2024-01-10T02:25:22;8.32;;;4.78;;
51374;SDS011;37465;52.738;4.752;2024-01-10T02:27:49;6.97;;;4.13;;
51374;SDS011;37465;52.738;4.752;2024-01-10T02:30:17;6.78;;;4.00;;
51374;SDS011;37465;52.738;4.752;2024-01-10T02:32:45;5.68;;;3.85;;
51374;SDS011;37465;52.738;4.752;2024-01-10T02:35:12;7.07;;;4.22;;
51374;SDS011;37465;52.738;4.752;2024-01-10T02:37:40;7.32;;;4.30;;
51374;SDS011;37465;52.738;4.752;2024-01-10T02:40:08;7.43;;;4.35;;
51374;SDS011;37465;52.738;4.752;2024-01-10T02:42:37;6.50;;;4.03;;
51374;SDS011;37465;52.738;4.752;2024-01-10T02:45:04;7.30;;;4.30;;
51374;SDS011;37465;52.738;4.752;2024-01-10T02:47:31;5.75;;;4.00;;
51374;SDS011;37465;52.738;4.752;2024-01-10T02:49:59;6.15;;;4.13;;
51374;SDS011;37465;52.738;4.752;2024-01-10T02:52:26;7.00;;;4.25;;
51374;SDS011;37465;52.738;4.752;2024-01-10T02:54:54;11.88;;;4.72;;
51374;SDS011;37465;52.738;4.752;2024-01-10T02:57:21;5.85;;;3.88;;
51374;SDS011;37465;52.738;4.752;2024-01-10T02:59:50;4.82;;;3.60;;
51374;SDS011;37465;52.738;4.752;2024-01-10T03:02:18;5.72;;;3.65;;
51374;SDS011;37465;52.738;4.752;2024-01-10T03:04:45;7.50;;;4.00;;
51374;SDS011;37465;52.738;4.752;2024-01-10T03:07:13;6.50;;;4.28;;
51374;SDS011;37465;52.738;4.752;2024-01-10T03:09:40;5.50;;;4.18;;
51374;SDS011;37465;52.738;4.752;2024-01-10T03:12:08;5.40;;;4.20;;
51374;SDS011;37465;52.738;4.752;2024-01-10T03:14:36;6.88;;;4.38;;
51374;SDS011;37465;52.738;4.752;2024-01-10T03:17:05;7.47;;;5.00;;
51374;SDS011;37465;52.738;4.752;2024-01-10T03:19:33;6.53;;;4.50;;
51374;SDS011;37465;52.738;4.752;2024-01-10T03:22:00;6.80;;;4.40;;
51374;SDS011;37465;52.738;4.752;2024-01-10T03:24:28;7.70;;;4.65;;
51374;SDS011;37465;52.738;4.752;2024-01-10T03:26:55;7.30;;;4.55;;
51374;SDS011;37465;52.738;4.752;2024-01-10T03:29:22;7.03;;;4.88;;
51374;SDS011;37465;52.738;4.752;2024-01-10T03:31:50;6.60;;;4.57;;
51374;SDS011;37465;52.738;4.752;2024-01-10T03:34:19;7.93;;;5.18;;
51374;SDS011;37465;52.738;4.752;2024-01-10T03:36:47;5.75;;;4.15;;
51374;SDS011;37465;52.738;4.752;2024-01-10T03:39:14;7.88;;;4.45;;
51374;SDS011;37465;52.738;4.752;2024-01-10T03:41:42;6.53;;;4.68;;
51374;SDS011;37465;52.738;4.752;2024-01-10T03:44:09;7.57;;;4.47;;
51374;SDS011;37465;52.738;4.752;2024-01-10T03:46:37;8.45;;;4.78;;
51374;SDS011;37465;52.738;4.752;2024-01-10T03:49:04;8.13;;;5.15;;
51374;SDS011;37465;52.738;4.752;2024-01-10T03:51:33;6.55;;;4.45;;
51374;SDS011;37465;52.738;4.752;2024-01-10T03:54:01;7.18;;;4.85;;
51374;SDS011;37465;52.738;4.752;2024-01-10T03:56:29;8.05;;;5.18;;
51374;SDS011;37465;52.738;4.752;2024-01-10T03:59:00;8.93;;;5.53;;
51374;SDS011;37465;52.738;4.752;2024-01-10T04:01:28;9.93;;;6.28;;
51374;SDS011;37465;52.738;4.752;2024-01-10T04:03:56;8.57;;;5.35;;
51374;SDS011;37465;52.738;4.752;2024-01-10T04:06:23;9.27;;;5.85;;
51374;SDS011;37465;52.738;4.752;2024-01-10T04:08:52;9.63;;;5.72;;
51374;SDS011;37465;52.738;4.752;2024-01-10T04:11:20;7.57;;;5.03;;
51374;SDS011;37465;52.738;4.752;2024-01-10T04:13:48;9.38;;;6.15;;
51374;SDS011;37465;52.738;4.752;2024-01-10T04:16:15;9.30;;;6.10;;
51374;SDS011;37465;52.738;4.752;2024-01-10T04:18:43;10.38;;;6.45;;
51374;SDS011;37465;52.738;4.752;2024-01-10T04:21:10;10.13;;;6.85;;
51374;SDS011;37465;52.738;4.752;2024-01-10T04:23:38;9.32;;;6.18;;
51374;SDS011;37465;52.738;4.752;2024-01-10T04:26:07;9.00;;;6.45;;
51374;SDS011;37465;52.738;4.752;2024-01-10T04:28:35;9.93;;;6.60;;
51374;SDS011;37465;52.738;4.752;2024-01-10T04:31:05;10.32;;;6.80;;
51374;SDS011;37465;52.738;4.752;2024-01-10T04:33:33;10.95;;;6.75;;
51374;SDS011;37465;52.738;4.752;2024-01-10T04:36:00;10.20;;;6.68;;
51374;SDS011;37465;52.738;4.752;2024-01-10T04:38:28;9.75;;;6.85;;
51374;SDS011;37465;52.738;4.752;2024-01-10T04:40:55;10.48;;;6.70;;
51374;SDS011;37465;52.738;4.752;2024-01-10T04:43:24;10.13;;;6.43;;
51374;SDS011;37465;52.738;4.752;2024-01-10T04:45:52;10.65;;;6.40;;
51374;SDS011;37465;52.738;4.752;2024-01-10T04:48:19;9.93;;;6.93;;
51374;SDS011;37465;52.738;4.752;2024-01-10T04:50:47;12.77;;;7.25;;
51374;SDS011;37465;52.738;4.752;2024-01-10T04:53:14;12.15;;;7.65;;
51374;SDS011;37465;52.738;4.752;2024-01-10T04:55:42;11.75;;;7.32;;
51374;SDS011;37465;52.738;4.752;2024-01-10T04:58:11;11.77;;;8.40;;
51374;SDS011;37465;52.738;4.752;2024-01-10T05:00:40;10.93;;;7.18;;
51374;SDS011;37465;52.738;4.752;2024-01-10T05:03:07;8.43;;;5.30;;
51374;SDS011;37465;52.738;4.752;2024-01-10T05:05:35;10.20;;;7.10;;
51374;SDS011;37465;52.738;4.752;2024-01-10T05:08:03;12.23;;;7.13;;
51374;SDS011;37465;52.738;4.752;2024-01-10T05:10:30;11.63;;;7.78;;
51374;SDS011;37465;52.738;4.752;2024-01-10T05:12:58;16.08;;;8.02;;
51374;SDS011;37465;52.738;4.752;2024-01-10T05:15:25;11.63;;;7.18;;
51374;SDS011;37465;52.738;4.752;2024-01-10T05:17:54;9.35;;;6.90;;
51374;SDS011;37465;52.738;4.752;2024-01-10T05:20:22;9.95;;;6.82;;
51374;SDS011;37465;52.738;4.752;2024-01-10T05:22:49;8.70;;;5.90;;
51374;SDS011;37465;52.738;4.752;2024-01-10T05:25:17;9.50;;;6.85;;
51374;SDS011;37465;52.738;4.752;2024-01-10T05:27:45;10.15;;;6.50;;
51374;SDS011;37465;52.738;4.752;2024-01-10T05:30:12;10.85;;;6.32;;
51374;SDS011;37465;52.738;4.752;2024-01-10T05:32:40;7.28;;;4.90;;
51374;SDS011;37465;52.738;4.752;2024-01-10T05:35:09;9.68;;;5.90;;
51374;SDS011;37465;52.738;4.752;2024-01-10T05:37:37;8.25;;;5.60;;
51374;SDS011;37465;52.738;4.752;2024-01-10T05:40:05;10.25;;;5.88;;
51374;SDS011;37465;52.738;4.752;2024-01-10T05:42:33;7.80;;;4.60;;
51374;SDS011;37465;52.738;4.752;2024-01-10T05:45:00;7.45;;;4.80;;
51374;SDS011;37465;52.738;4.752;2024-01-10T05:47:29;7.63;;;5.15;;
51374;SDS011;37465;52.738;4.752;2024-01-10T05:49:56;7.22;;;4.85;;
51374;SDS011;37465;52.738;4.752;2024-01-10T05:52:25;6.00;;;4.43;;
51374;SDS011;37465;52.738;4.752;2024-01-10T05:54:53;7.55;;;5.05;;
51374;SDS011;37465;52.738;4.752;2024-01-10T05:57:20;6.90;;;4.28;;
51374;SDS011;37465;52.738;4.752;2024-01-10T05:59:48;7.10;;;4.50;;
51374;SDS011;37465;52.738;4.752;2024-01-10T06:02:18;6.78;;;4.75;;
51374;SDS011;37465;52.738;4.752;2024-01-10T06:04:45;6.15;;;4.35;;
51374;SDS011;37465;52.738;4.752;2024-01-10T06:07:13;7.63;;;5.10;;
51374;SDS011;37465;52.738;4.752;2024-01-10T06:09:42;6.68;;;4.13;;
51374;SDS011;37465;52.738;4.752;2024-01-10T06:12:09;7.18;;;4.90;;
51374;SDS011;37465;52.738;4.752;2024-01-10T06:14:38;7.10;;;4.72;;
51374;SDS011;37465;52.738;4.752;2024-01-10T06:17:05;7.03;;;4.03;;
51374;SDS011;37465;52.738;4.752;2024-01-10T06:19:33;8.50;;;5.07;;
51374;SDS011;37465;52.738;4.752;2024-01-10T06:22:00;5.85;;;4.35;;
51374;SDS011;37465;52.738;4.752;2024-01-10T06:24:28;6.68;;;4.28;;
51374;SDS011;37465;52.738;4.752;2024-01-10T06:26:57;7.50;;;4.80;;
51374;SDS011;37465;52.738;4.752;2024-01-10T06:31:53;6.38;;;4.55;;
51374;SDS011;37465;52.738;4.752;2024-01-10T06:34:22;7.82;;;4.40;;
51374;SDS011;37465;52.738;4.752;2024-01-10T06:36:50;7.13;;;4.53;;
51374;SDS011;37465;52.738;4.752;2024-01-10T06:39:17;7.30;;;4.43;;
51374;SDS011;37465;52.738;4.752;2024-01-10T06:41:46;8.48;;;4.50;;
51374;SDS011;37465;52.738;4.752;2024-01-10T06:44:15;6.43;;;4.47;;
51374;SDS011;37465;52.738;4.752;2024-01-10T06:46:43;7.13;;;4.68;;
51374;SDS011;37465;52.738;4.752;2024-01-10T06:49:11;6.68;;;4.32;;
51374;SDS011;37465;52.738;4.752;2024-01-10T06:51:39;5.28;;;3.72;;
51374;SDS011;37465;52.738;4.752;2024-01-10T06:54:06;8.82;;;4.90;;
51374;SDS011;37465;52.738;4.752;2024-01-10T06:56:34;7.72;;;4.57;;
51374;SDS011;37465;52.738;4.752;2024-01-10T06:59:02;6.47;;;4.93;;
51374;SDS011;37465;52.738;4.752;2024-01-10T07:01:31;7.95;;;4.50;;
51374;SDS011;37465;52.738;4.752;2024-01-10T07:03:59;9.73;;;5.63;;
51374;SDS011;37465;52.738;4.752;2024-01-10T07:06:26;8.10;;;5.22;;
51374;SDS011;37465;52.738;4.752;2024-01-10T07:08:54;6.63;;;4.65;;
51374;SDS011;37465;52.738;4.752;2024-01-10T07:11:21;7.72;;;4.68;;
51374;SDS011;37465;52.738;4.752;2024-01-10T07:13:49;7.07;;;4.68;;
51374;SDS011;37465;52.738;4.752;2024-01-10T07:16:16;8.35;;;5.18;;
51374;SDS011;37465;52.738;4.752;2024-01-10T07:18:46;9.88;;;5.22;;
51374;SDS011;37465;52.738;4.752;2024-01-10T07:21:16;8.02;;;4.97;;
51374;SDS011;37465;52.738;4.752;2024-01-10T07:23:44;8.65;;;5.70;;
51374;SDS011;37465;52.738;4.752;2024-01-10T07:26:12;8.23;;;5.05;;
51374;SDS011;37465;52.738;4.752;2024-01-10T07:28:40;7.47;;;5.03;;
51374;SDS011;37465;52.738;4.752;2024-01-10T07:31:08;7.15;;;4.85;;
51374;SDS011;37465;52.738;4.752;2024-01-10T07:33:35;7.78;;;5.03;;
51374;SDS011;37465;52.738;4.752;2024-01-10T07:36:05;7.95;;;4.82;;
51374;SDS011;37465;52.738;4.752;2024-01-10T07:38:33;7.28;;;4.88;;
51374;SDS011;37465;52.738;4.752;2024-01-10T07:41:01;8.23;;;5.78;;
51374;SDS011;37465;52.738;4.752;2024-01-10T07:43:29;6.28;;;4.40;;
51374;SDS011;37465;52.738;4.752;2024-01-10T07:45:56;9.50;;;5.05;;
51374;SDS011;37465;52.738;4.752;2024-01-10T07:48:24;8.77;;;5.45;;
51374;SDS011;37465;52.738;4.752;2024-01-10T07:50:52;8.68;;;5.93;;
51374;SDS011;37465;52.738;4.752;2024-01-10T07:53:20;9.02;;;5.07;;
51374;SDS011;37465;52.738;4.752;2024-01-10T07:55:48;9.07;;;5.38;;
51374;SDS011;37465;52.738;4.752;2024-01-10T07:58:17;7.88;;;5.07;;
51374;SDS011;37465;52.738;4.752;2024-01-10T08:00:45;8.15;;;4.95;;
51374;SDS011;37465;52.738;4.752;2024-01-10T08:03:12;7.80;;;4.80;;
51374;SDS011;37465;52.738;4.752;2024-01-10T08:05:40;8.05;;;5.32;;
51374;SDS011;37465;52.738;4.752;2024-01-10T08:08:08;9.25;;;5.90;;
51374;SDS011;37465;52.738;4.752;2024-01-10T08:10:36;9.05;;;6.10;;
51374;SDS011;37465;52.738;4.752;2024-01-10T08:15:32;6.90;;;4.55;;
51374;SDS011;37465;52.738;4.752;2024-01-10T08:18:00;8.48;;;5.60;;
51374;SDS011;37465;52.738;4.752;2024-01-10T08:20:29;7.63;;;5.07;;
51374;SDS011;37465;52.738;4.752;2024-01-10T08:22:57;8.27;;;5.40;;
51374;SDS011;37465;52.738;4.752;2024-01-10T08:25:24;8.10;;;5.13;;
51374;SDS011;37465;52.738;4.752;2024-01-10T08:27:53;7.50;;;5.60;;
51374;SDS011;37465;52.738;4.752;2024-01-10T08:30:23;7.75;;;4.80;;
51374;SDS011;37465;52.738;4.752;2024-01-10T08:32:51;8.10;;;4.90;;
51374;SDS011;37465;52.738;4.752;2024-01-10T08:35:19;7.05;;;4.88;;
51374;SDS011;37465;52.738;4.752;2024-01-10T08:37:49;7.88;;;4.97;;
51374;SDS011;37465;52.738;4.752;2024-01-10T08:40:17;6.72;;;4.47;;
51374;SDS011;37465;52.738;4.752;2024-01-10T08:42:44;6.70;;;4.80;;
51374;SDS011;37465;52.738;4.752;2024-01-10T08:45:13;7.20;;;4.70;;
51374;SDS011;37465;52.738;4.752;2024-01-10T08:47:41;6.90;;;4.32;;
51374;SDS011;37465;52.738;4.752;2024-01-10T08:50:09;6.03;;;4.38;;
51374;SDS011;37465;52.738;4.752;2024-01-10T08:52:37;5.50;;;4.20;;
51374;SDS011;37465;52.738;4.752;2024-01-10T08:55:05;7.10;;;4.35;;
51374;SDS011;37465;52.738;4.752;2024-01-10T08:57:38;5.97;;;4.10;;
51374;SDS011;37465;52.738;4.752;2024-01-10T09:00:06;5.22;;;3.65;;
51374;SDS011;37465;52.738;4.752;2024-01-10T09:02:39;6.13;;;3.85;;
51374;SDS011;37465;52.738;4.752;2024-01-10T09:05:07;6.60;;;3.80;;
51374;SDS011;37465;52.738;4.752;2024-01-10T09:07:37;6.32;;;4.05;;
51374;SDS011;37465;52.738;4.752;2024-01-10T09:10:05;8.73;;;4.18;;
51374;SDS011;37465;52.738;4.752;2024-01-10T09:12:34;6.32;;;4.20;;
51374;SDS011;37465;52.738;4.752;2024-01-10T09:15:01;6.53;;;4.40;;
51374;SDS011;37465;52.738;4.752;2024-01-10T09:17:29;7.90;;;4.15;;
51374;SDS011;37465;52.738;4.752;2024-01-10T09:19:58;6.25;;;4.65;;
51374;SDS011;37465;52.738;4.752;2024-01-10T09:22:28;6.57;;;4.20;;
51374;SDS011;37465;52.738;4.752;2024-01-10T09:24:56;7.75;;;5.00;;
51374;SDS011;37465;52.738;4.752;2024-01-10T09:27:25;6.50;;;4.13;;
51374;SDS011;37465;52.738;4.752;2024-01-10T09:29:53;6.45;;;4.55;;
51374;SDS011;37465;52.738;4.752;2024-01-10T09:32:20;8.02;;;4.60;;
51374;SDS011;37465;52.738;4.752;2024-01-10T09:34:48;7.40;;;4.88;;
51374;SDS011;37465;52.738;4.752;2024-01-10T09:37:17;5.93;;;4.15;;
51374;SDS011;37465;52.738;4.752;2024-01-10T09:39:45;6.35;;;4.20;;
51374;SDS011;37465;52.738;4.752;2024-01-10T09:42:13;7.63;;;4.25;;
51374;SDS011;37465;52.738;4.752;2024-01-10T09:44:41;7.47;;;4.78;;
51374;SDS011;37465;52.738;4.752;2024-01-10T09:47:09;6.72;;;4.60;;
51374;SDS011;37465;52.738;4.752;2024-01-10T09:49:37;5.97;;;4.07;;
51374;SDS011;37465;52.738;4.752;2024-01-10T09:52:05;8.40;;;4.50;;
51374;SDS011;37465;52.738;4.752;2024-01-10T09:54:35;5.68;;;4.07;;
51374;SDS011;37465;52.738;4.752;2024-01-10T09:57:05;7.40;;;4.75;;
51374;SDS011;37465;52.738;4.752;2024-01-10T09:59:33;5.65;;;4.40;;
51374;SDS011;37465;52.738;4.752;2024-01-10T10:02:00;7.80;;;4.75;;
51374;SDS011;37465;52.738;4.752;2024-01-10T10:04:30;6.25;;;4.38;;
51374;SDS011;37465;52.738;4.752;2024-01-10T10:06:58;5.95;;;4.60;;
51374;SDS011;37465;52.738;4.752;2024-01-10T10:09:28;7.75;;;4.65;;
51374;SDS011;37465;52.738;4.752;2024-01-10T10:11:57;6.57;;;4.45;;
51374;SDS011;37465;52.738;4.752;2024-01-10T10:14:25;7.32;;;4.85;;
51374;SDS011;37465;52.738;4.752;2024-01-10T10:16:55;5.97;;;4.50;;
51374;SDS011;37465;52.738;4.752;2024-01-10T10:19:23;5.97;;;4.32;;
51374;SDS011;37465;52.738;4.752;2024-01-10T10:22:07;6.72;;;4.70;;
51374;SDS011;37465;52.738;4.752;2024-01-10T10:24:35;6.25;;;4.57;;
51374;SDS011;37465;52.738;4.752;2024-01-10T10:27:06;6.63;;;5.18;;
51374;SDS011;37465;52.738;4.752;2024-01-10T10:29:35;6.32;;;4.50;;
51374;SDS011;37465;52.738;4.752;2024-01-10T10:32:03;7.57;;;5.10;;
51374;SDS011;37465;52.738;4.752;2024-01-10T10:34:31;7.07;;;5.00;;
51374;SDS011;37465;52.738;4.752;2024-01-10T10:36:59;8.18;;;5.22;;
51374;SDS011;37465;52.738;4.752;2024-01-10T10:39:27;7.28;;;4.60;;
51374;SDS011;37465;52.738;4.752;2024-01-10T10:41:54;7.43;;;4.75;;
51374;SDS011;37465;52.738;4.752;2024-01-10T10:44:25;7.65;;;5.30;;
51374;SDS011;37465;52.738;4.752;2024-01-10T10:46:55;7.82;;;4.65;;
51374;SDS011;37465;52.738;4.752;2024-01-10T10:49:38;10.32;;;5.53;;
51374;SDS011;37465;52.738;4.752;2024-01-10T10:52:08;8.45;;;5.13;;
51374;SDS011;37465;52.738;4.752;2024-01-10T10:54:36;8.05;;;5.40;;
51374;SDS011;37465;52.738;4.752;2024-01-10T10:57:05;9.02;;;5.38;;
51374;SDS011;37465;52.738;4.752;2024-01-10T10:59:34;7.78;;;5.60;;
51374;SDS011;37465;52.738;4.752;2024-01-10T11:02:03;7.35;;;5.22;;
51374;SDS011;37465;52.738;4.752;2024-01-10T11:04:31;7.30;;;5.03;;
51374;SDS011;37465;52.738;4.752;2024-01-10T11:06:59;8.02;;;5.85;;
51374;SDS011;37465;52.738;4.752;2024-01-10T11:09:27;6.32;;;5.07;;
51374;SDS011;37465;52.738;4.752;2024-01-10T11:11:59;6.82;;;5.65;;
51374;SDS011;37465;52.738;4.752;2024-01-10T11:14:32;7.15;;;4.78;;
51374;SDS011;37465;52.738;4.752;2024-01-10T11:19:53;6.45;;;4.43;;
51374;SDS011;37465;52.738;4.752;2024-01-10T11:22:32;6.45;;;4.57;;
51374;SDS011;37465;52.738;4.752;2024-01-10T11:27:32;8.90;;;5.07;;
51374;SDS011;37465;52.738;4.752;2024-01-10T11:30:00;7.50;;;4.50;;
51374;SDS011;37465;52.738;4.752;2024-01-10T11:32:31;6.85;;;4.60;;
51374;SDS011;37465;52.738;4.752;2024-01-10T11:35:03;6.35;;;4.45;;
51374;SDS011;37465;52.738;4.752;2024-01-10T11:37:38;5.93;;;4.63;;
51374;SDS011;37465;52.738;4.752;2024-01-10T11:40:07;6.10;;;4.63;;
51374;SDS011;37465;52.738;4.752;2024-01-10T11:42:41;11.65;;;6.80;;
51374;SDS011;37465;52.738;4.752;2024-01-10T11:45:09;7.32;;;4.82;;
51374;SDS011;37465;52.738;4.752;2024-01-10T11:47:38;6.72;;;4.90;;
51374;SDS011;37465;52.738;4.752;2024-01-10T11:50:07;6.85;;;4.75;;
51374;SDS011;37465;52.738;4.752;2024-01-10T11:52:36;7.43;;;5.03;;
51374;SDS011;37465;52.738;4.752;2024-01-10T11:55:04;6.25;;;4.78;;
51374;SDS011;37465;52.738;4.752;2024-01-10T11:57:33;7.18;;;5.18;;
51374;SDS011;37465;52.738;4.752;2024-01-10T12:00:01;8.13;;;5.97;;
51374;SDS011;37465;52.738;4.752;2024-01-10T12:02:31;8.45;;;5.28;;
51374;SDS011;37465;52.738;4.752;2024-01-10T12:04:59;9.13;;;5.95;;
51374;SDS011;37465;52.738;4.752;2024-01-10T12:07:29;7.93;;;5.40;;
51374;SDS011;37465;52.738;4.752;2024-01-10T12:09:57;9.75;;;6.45;;
51374;SDS011;37465;52.738;4.752;2024-01-10T12:12:24;8.48;;;5.57;;
51374;SDS011;37465;52.738;4.752;2024-01-10T12:14:52;8.13;;;5.75;;
51374;SDS011;37465;52.738;4.752;2024-01-10T12:17:20;7.25;;;5.50;;
51374;SDS011;37465;52.738;4.752;2024-01-10T12:19:48;10.38;;;5.75;;
51374;SDS011;37465;52.738;4.752;2024-01-10T12:22:16;7.60;;;5.97;;
51374;SDS011;37465;52.738;4.752;2024-01-10T12:24:45;8.30;;;5.63;;
51374;SDS011;37465;52.738;4.752;2024-01-10T12:27:15;8.43;;;5.90;;
51374;SDS011;37465;52.738;4.752;2024-01-10T12:29:43;6.55;;;5.03;;
51374;SDS011;37465;52.738;4.752;2024-01-10T12:32:10;7.35;;;5.32;;
51374;SDS011;37465;52.738;4.752;2024-01-10T12:34:38;8.73;;;5.32;;
51374;SDS011;37465;52.738;4.752;2024-01-10T12:37:05;8.57;;;5.68;;
51374;SDS011;37465;52.738;4.752;2024-01-10T12:39:33;7.25;;;5.18;;
51374;SDS011;37465;52.738;4.752;2024-01-10T12:42:02;9.45;;;5.18;;
51374;SDS011;37465;52.738;4.752;2024-01-10T12:44:30;7.05;;;4.75;;
51374;SDS011;37465;52.738;4.752;2024-01-10T12:46:58;6.43;;;4.63;;
51374;SDS011;37465;52.738;4.752;2024-01-10T12:49:26;7.05;;;4.95;;
51374;SDS011;37465;52.738;4.752;2024-01-10T12:51:54;8.88;;;5.38;;
51374;SDS011;37465;52.738;4.752;2024-01-10T12:54:21;5.93;;;4.68;;
51374;SDS011;37465;52.738;4.752;2024-01-10T12:56:49;6.88;;;4.68;;
51374;SDS011;37465;52.738;4.752;2024-01-10T12:59:18;6.03;;;4.80;;
51374;SDS011;37465;52.738;4.752;2024-01-10T13:01:45;7.53;;;4.80;;
51374;SDS011;37465;52.738;4.752;2024-01-10T13:04:13;7.05;;;4.88;;
51374;SDS011;37465;52.738;4.752;2024-01-10T13:06:40;8.70;;;4.90;;
51374;SDS011;37465;52.738;4.752;2024-01-10T13:09:07;7.82;;;5.25;;
51374;SDS011;37465;52.738;4.752;2024-01-10T13:11:35;7.55;;;5.22;;
51374;SDS011;37465;52.738;4.752;2024-01-10T13:14:03;9.25;;;5.32;;
51374;SDS011;37465;52.738;4.752;2024-01-10T13:16:32;7.30;;;5.22;;
51374;SDS011;37465;52.738;4.752;2024-01-10T13:19:11;7.10;;;5.13;;
51374;SDS011;37465;52.738;4.752;2024-01-10T13:21:41;7.82;;;5.30;;
51374;SDS011;37465;52.738;4.752;2024-01-10T13:24:08;8.77;;;5.22;;
51374;SDS011;37465;52.738;4.752;2024-01-10T13:26:36;8.25;;;5.55;;
51374;SDS011;37465;52.738;4.752;2024-01-10T13:29:03;7.50;;;5.03;;
51374;SDS011;37465;52.738;4.752;2024-01-10T13:31:32;8.43;;;5.18;;
51374;SDS011;37465;52.738;4.752;2024-01-10T13:34:00;8.32;;;4.63;;
51374;SDS011;37465;52.738;4.752;2024-01-10T13:36:30;8.68;;;5.18;;
51374;SDS011;37465;52.738;4.752;2024-01-10T13:38:57;7.75;;;4.57;;
51374;SDS011;37465;52.738;4.752;2024-01-10T13:41:25;8.43;;;5.13;;
51374;SDS011;37465;52.738;4.752;2024-01-10T13:43:52;8.13;;;4.70;;
51374;SDS011;37465;52.738;4.752;2024-01-10T13:46:20;8.52;;;4.80;;
51374;SDS011;37465;52.738;4.752;2024-01-10T13:48:49;8.95;;;5.28;;
51374;SDS011;37465;52.738;4.752;2024-01-10T13:51:16;8.18;;;5.10;;
51374;SDS011;37465;52.738;4.752;2024-01-10T13:53:44;10.18;;;4.97;;
51374;SDS011;37465;52.738;4.752;2024-01-10T13:56:12;8.98;;;5.38;;
51374;SDS011;37465;52.738;4.752;2024-01-10T13:58:41;9.27;;;4.80;;
51374;SDS011;37465;52.738;4.752;2024-01-10T14:01:08;8.52;;;4.60;;
51374;SDS011;37465;52.738;4.752;2024-01-10T14:03:36;8.82;;;4.82;;
51374;SDS011;37465;52.738;4.752;2024-01-10T14:06:06;8.07;;;4.32;;
51374;SDS011;37465;52.738;4.752;2024-01-10T14:08:34;8.65;;;5.10;;
51374;SDS011;37465;52.738;4.752;2024-01-10T14:11:03;9.02;;;4.95;;
51374;SDS011;37465;52.738;4.752;2024-01-10T14:13:31;8.23;;;4.45;;
51374;SDS011;37465;52.738;4.752;2024-01-10T14:15:59;8.05;;;4.57;;
51374;SDS011;37465;52.738;4.752;2024-01-10T14:18:27;10.07;;;5.22;;
51374;SDS011;37465;52.738;4.752;2024-01-10T14:20:55;10.18;;;5.43;;
51374;SDS011;37465;52.738;4.752;2024-01-10T14:23:23;8.57;;;4.78;;
51374;SDS011;37465;52.738;4.752;2024-01-10T14:25:51;8.85;;;4.72;;
51374;SDS011;37465;52.738;4.752;2024-01-10T14:28:19;8.07;;;4.60;;
51374;SDS011;37465;52.738;4.752;2024-01-10T14:30:48;8.70;;;5.28;;
51374;SDS011;37465;52.738;4.752;2024-01-10T14:33:15;9.63;;;4.20;;
51374;SDS011;37465;52.738;4.752;2024-01-10T14:35:43;9.77;;;4.88;;
51374;SDS011;37465;52.738;4.752;2024-01-10T14:38:11;8.77;;;4.85;;
51374;SDS011;37465;52.738;4.752;2024-01-10T14:40:40;9.70;;;4.65;;
51374;SDS011;37465;52.738;4.752;2024-01-10T14:43:08;8.63;;;4.60;;
51374;SDS011;37465;52.738;4.752;2024-01-10T14:45:35;9.85;;;5.18;;
51374;SDS011;37465;52.738;4.752;2024-01-10T14:48:04;9.40;;;4.55;;
51374;SDS011;37465;52.738;4.752;2024-01-10T14:50:31;9.82;;;4.80;;
51374;SDS011;37465;52.738;4.752;2024-01-10T14:53:00;9.60;;;4.75;;
51374;SDS011;37465;52.738;4.752;2024-01-10T14:55:27;9.60;;;4.82;;
51374;SDS011;37465;52.738;4.752;2024-01-10T14:57:57;7.97;;;4.20;;
51374;SDS011;37465;52.738;4.752;2024-01-10T15:00:25;8.15;;;5.07;;
51374;SDS011;37465;52.738;4.752;2024-01-10T15:02:53;9.18;;;4.57;;